createdAt,value
2023-02-07T00:00:14.465Z,-5.21
2023-02-07T00:01:14.458Z,-5.53
2023-02-07T00:02:14.489Z,-5.53
2023-02-07T00:03:14.456Z,-5.21
2023-02-07T00:04:14.393Z,-5.21
2023-02-07T00:05:14.414Z,-5.21
2023-02-07T00:06:14.387Z,-5.53
2023-02-07T00:07:14.377Z,-6.17
2023-02-07T00:08:14.388Z,-6.17
2023-02-07T00:09:14.357Z,-5.21
2023-02-07T00:10:14.343Z,-2.63
2023-02-07T00:11:14.308Z,-5.53
2023-02-07T00:12:14.312Z,-5.21
2023-02-07T00:13:14.294Z,-5.53
2023-02-07T00:14:14.268Z,-4.88
2023-02-07T00:15:14.298Z,-2.30
2023-02-07T00:16:14.317Z,-4.88
2023-02-07T00:17:14.265Z,-7.78
2023-02-07T00:18:15.173Z,-5.21
2023-02-07T00:19:14.216Z,-5.21
2023-02-07T00:20:14.194Z,-4.88
2023-02-07T00:21:14.225Z,-5.21
2023-02-07T00:22:14.547Z,-4.88
2023-02-07T00:23:14.167Z,-7.78
2023-02-07T00:24:14.146Z,-4.88
2023-02-07T00:25:14.145Z,-6.49
2023-02-07T00:26:14.127Z,-3.27
2023-02-07T00:27:14.129Z,-5.21
2023-02-07T00:28:14.161Z,-6.82
2023-02-07T00:29:14.114Z,-2.30
2023-02-07T00:30:14.098Z,-5.53
2023-02-07T00:31:14.203Z,-5.21
2023-02-07T00:32:14.095Z,-8.43
2023-02-07T00:33:14.060Z,-3.59
2023-02-07T00:34:14.084Z,-6.82
2023-02-07T00:35:14.013Z,-5.21
2023-02-07T00:36:14.012Z,-5.53
2023-02-07T00:37:14.023Z,-7.46
2023-02-07T00:38:14.088Z,-5.21
2023-02-07T00:39:14.001Z,-5.85
2023-02-07T00:40:13.943Z,-7.46
2023-02-07T00:41:13.959Z,-5.53
2023-02-07T00:42:13.945Z,-5.21
2023-02-07T00:43:28.153Z,-5.53
2023-02-07T00:44:14.908Z,-2.30
2023-02-07T00:45:13.911Z,-2.95
2023-02-07T00:46:13.922Z,-4.88
2023-02-07T00:47:13.871Z,-6.82
2023-02-07T00:48:13.851Z,-4.88
2023-02-07T00:49:13.855Z,-11.01
2023-02-07T00:50:13.850Z,-6.82
2023-02-07T00:51:13.842Z,-7.78
2023-02-07T00:52:13.812Z,-5.85
2023-02-07T00:53:13.802Z,-2.95
2023-02-07T00:54:13.792Z,-6.49
2023-02-07T00:55:14.036Z,-5.21
2023-02-07T00:56:13.774Z,-5.53
2023-02-07T00:57:13.762Z,-3.92
2023-02-07T00:58:13.730Z,-5.21
2023-02-07T00:59:13.721Z,-5.21
2023-02-07T01:00:13.701Z,-5.53
2023-02-07T01:01:13.721Z,-5.21
2023-02-07T01:02:13.944Z,-5.53
2023-02-07T01:03:13.693Z,-5.53
2023-02-07T01:04:13.658Z,-5.21
2023-02-07T01:05:13.649Z,-5.53
2023-02-07T01:06:13.633Z,-3.59
2023-02-07T01:07:13.634Z,-5.21
2023-02-07T01:08:13.607Z,-6.82
2023-02-07T01:09:13.602Z,-5.21
2023-02-07T01:10:13.584Z,-2.95
2023-02-07T01:11:13.579Z,-5.53
2023-02-07T01:12:13.582Z,-5.53
2023-02-07T01:13:14.506Z,-3.27
2023-02-07T01:14:13.543Z,-7.78
2023-02-07T01:15:13.533Z,-4.56
2023-02-07T01:16:13.564Z,-5.21
2023-02-07T01:17:13.498Z,-5.53
2023-02-07T01:18:13.514Z,-5.53
2023-02-07T01:19:13.848Z,-7.14
2023-02-07T01:20:13.470Z,-5.85
2023-02-07T01:21:14.269Z,-5.53
2023-02-07T01:22:13.437Z,-2.30
2023-02-07T01:23:13.482Z,-4.56
2023-02-07T01:24:13.437Z,-5.85
2023-02-07T01:25:13.433Z,-5.21
2023-02-07T01:26:13.392Z,-5.53
2023-02-07T01:27:13.686Z,-5.53
2023-02-07T01:28:13.386Z,-6.82
2023-02-07T01:29:13.363Z,-5.53
2023-02-07T01:30:13.358Z,-5.21
2023-02-07T01:31:13.396Z,-3.27
2023-02-07T01:32:13.319Z,-5.21
2023-02-07T01:33:13.327Z,-5.53
2023-02-07T01:34:13.298Z,-5.53
2023-02-07T01:35:13.290Z,-5.21
2023-02-07T01:36:13.289Z,-7.14
2023-02-07T01:37:13.258Z,-6.82
2023-02-07T01:38:13.518Z,-6.49
2023-02-07T01:39:13.239Z,-4.56
2023-02-07T01:40:13.219Z,-5.21
2023-02-07T01:41:13.211Z,-5.53
2023-02-07T01:42:13.187Z,-5.53
2023-02-07T01:43:13.204Z,-5.85
2023-02-07T01:44:13.161Z,-7.14
2023-02-07T01:45:13.184Z,-5.53
2023-02-07T01:46:13.152Z,-2.63
2023-02-07T01:47:13.136Z,-2.95
2023-02-07T01:48:13.120Z,-5.53
2023-02-07T01:49:13.130Z,-5.53
2023-02-07T01:50:13.088Z,-5.53
2023-02-07T01:51:13.093Z,-3.27
2023-02-07T01:52:13.056Z,-5.85
2023-02-07T01:53:13.070Z,-3.27
2023-02-07T01:54:13.036Z,-3.59
2023-02-07T01:55:13.038Z,-5.85
2023-02-07T01:56:22.731Z,-5.53
2023-02-07T01:57:14.025Z,-5.21
2023-02-07T01:58:13.018Z,-5.85
2023-02-07T01:59:12.991Z,-5.85
2023-02-07T02:00:14.100Z,-5.85
2023-02-07T02:01:12.986Z,-6.82
2023-02-07T02:02:12.998Z,-5.53
2023-02-07T02:03:12.944Z,-6.17
2023-02-07T02:04:12.911Z,-5.85
2023-02-07T02:05:12.908Z,-5.53
2023-02-07T02:06:12.897Z,-5.53
2023-02-07T02:07:12.875Z,-5.85
2023-02-07T02:08:12.869Z,-6.49
2023-02-07T02:09:12.862Z,-4.24
2023-02-07T02:10:12.857Z,-5.85
2023-02-07T02:11:12.825Z,-5.53
2023-02-07T02:12:12.822Z,-2.63
2023-02-07T02:13:12.826Z,-4.24
2023-02-07T02:14:12.807Z,-5.53
2023-02-07T02:15:12.795Z,-5.85
2023-02-07T02:16:12.859Z,-6.49
2023-02-07T02:17:12.758Z,-1.98
2023-02-07T02:18:12.762Z,-5.85
2023-02-07T02:19:12.743Z,-5.21
2023-02-07T02:20:12.716Z,-6.49
2023-02-07T02:21:12.717Z,-5.21
2023-02-07T02:22:12.708Z,-6.17
2023-02-07T02:23:12.708Z,-5.21
2023-02-07T02:24:12.672Z,-5.53
2023-02-07T02:25:12.676Z,-4.88
2023-02-07T02:26:12.638Z,-7.14
2023-02-07T02:27:12.639Z,-3.59
2023-02-07T02:28:12.654Z,-7.14
2023-02-07T02:29:12.610Z,-5.53
2023-02-07T02:30:12.595Z,-4.88
2023-02-07T02:31:12.640Z,-7.14
2023-02-07T02:32:12.598Z,-5.85
2023-02-07T02:33:12.583Z,-6.82
2023-02-07T02:34:12.562Z,-5.85
2023-02-07T02:35:12.545Z,-5.85
2023-02-07T02:36:12.517Z,-5.85
2023-02-07T02:37:12.534Z,-5.53
2023-02-07T02:38:12.522Z,-5.53
2023-02-07T02:39:12.498Z,-6.17
2023-02-07T02:40:12.471Z,-5.53
2023-02-07T02:41:12.458Z,-5.53
2023-02-07T02:42:12.447Z,-5.53
2023-02-07T02:43:12.449Z,-4.88
2023-02-07T02:44:12.422Z,-5.21
2023-02-07T02:45:12.409Z,-4.56
2023-02-07T02:46:12.425Z,-4.88
2023-02-07T02:47:12.397Z,-4.88
2023-02-07T02:48:12.383Z,-5.53
2023-02-07T02:49:12.372Z,-1.98
2023-02-07T02:50:12.350Z,-3.59
2023-02-07T02:51:12.352Z,-4.88
2023-02-07T02:52:12.355Z,-4.88
2023-02-07T02:53:12.329Z,-4.88
2023-02-07T02:54:12.302Z,-2.63
2023-02-07T02:55:12.308Z,-6.82
2023-02-07T02:56:12.287Z,-4.56
2023-02-07T02:57:12.272Z,-4.24
2023-02-07T02:58:12.269Z,-6.17
2023-02-07T02:59:12.251Z,-6.49
2023-02-07T03:00:12.262Z,-5.21
2023-02-07T03:01:12.223Z,-4.56
2023-02-07T03:02:12.221Z,-4.24
2023-02-07T03:03:12.204Z,-4.56
2023-02-07T03:04:12.185Z,-4.24
2023-02-07T03:05:12.197Z,-4.88
2023-02-07T03:06:12.171Z,-4.56
2023-02-07T03:07:12.155Z,-3.27
2023-02-07T03:08:12.147Z,-2.63
2023-02-07T03:09:12.117Z,-4.56
2023-02-07T03:10:12.107Z,-4.24
2023-02-07T03:11:12.103Z,-4.56
2023-02-07T03:12:12.085Z,-4.88
2023-02-07T03:13:12.083Z,-5.21
2023-02-07T03:14:12.064Z,-4.56
2023-02-07T03:15:12.054Z,-6.82
2023-02-07T03:16:12.052Z,-4.88
2023-02-07T03:17:12.024Z,-5.53
2023-02-07T03:18:12.025Z,-4.56
2023-02-07T03:19:12.010Z,-6.49
2023-02-07T03:20:11.998Z,-4.88
2023-02-07T03:21:11.973Z,-5.21
2023-02-07T03:22:11.957Z,-4.56
2023-02-07T03:23:11.956Z,-5.21
2023-02-07T03:24:11.938Z,-4.88
2023-02-07T03:25:11.928Z,-4.56
2023-02-07T03:26:11.905Z,-4.88
2023-02-07T03:27:11.894Z,-4.24
2023-02-07T03:28:11.936Z,-3.59
2023-02-07T03:29:11.882Z,-5.53
2023-02-07T03:30:11.862Z,-4.56
2023-02-07T03:31:11.863Z,-1.02
2023-02-07T03:32:11.845Z,-3.27
2023-02-07T03:33:11.957Z,-5.21
2023-02-07T03:34:11.806Z,-4.56
2023-02-07T03:35:11.797Z,-8.11
2023-02-07T03:36:11.808Z,-4.56
2023-02-07T03:37:11.789Z,-4.88
2023-02-07T03:38:11.761Z,-7.14
2023-02-07T03:39:11.751Z,-6.82
2023-02-07T03:40:11.734Z,-5.21
2023-02-07T03:41:11.754Z,-5.85
2023-02-07T03:42:11.702Z,-4.24
2023-02-07T03:43:11.712Z,-3.92
2023-02-07T03:44:11.702Z,-4.56
2023-02-07T03:45:11.682Z,-3.27
2023-02-07T03:46:11.696Z,-4.56
2023-02-07T03:47:11.658Z,-4.88
2023-02-07T03:48:11.646Z,-4.56
2023-02-07T03:49:11.632Z,-4.88
2023-02-07T03:50:11.603Z,-4.56
2023-02-07T03:51:11.606Z,-3.27
2023-02-07T03:52:11.594Z,-4.56
2023-02-07T03:53:11.584Z,-4.24
2023-02-07T03:54:11.572Z,-4.88
2023-02-07T03:55:11.571Z,-3.27
2023-02-07T03:56:11.545Z,-4.88
2023-02-07T03:57:11.769Z,-5.21
2023-02-07T03:58:11.516Z,-4.56
2023-02-07T03:59:11.495Z,-4.24
2023-02-07T04:00:11.526Z,-4.24
2023-02-07T04:01:11.522Z,-4.24
2023-02-07T04:02:11.494Z,-3.92
2023-02-07T04:03:11.469Z,-3.27
2023-02-07T04:04:11.475Z,-5.53
2023-02-07T04:05:11.442Z,-4.24
2023-02-07T04:06:11.407Z,-6.17
2023-02-07T04:07:11.417Z,-3.92
2023-02-07T04:08:11.402Z,-5.85
2023-02-07T04:09:11.935Z,-4.24
2023-02-07T04:10:11.380Z,-1.66
2023-02-07T04:11:11.366Z,-4.56
2023-02-07T04:12:11.342Z,-4.56
2023-02-07T04:13:11.339Z,-6.17
2023-02-07T04:14:11.329Z,-4.24
2023-02-07T04:15:11.310Z,-3.59
2023-02-07T04:16:11.324Z,-4.24
2023-02-07T04:17:11.289Z,-4.24
2023-02-07T04:18:11.278Z,-4.24
2023-02-07T04:19:11.263Z,-4.24
2023-02-07T04:20:11.241Z,-4.88
2023-02-07T04:21:11.241Z,-2.63
2023-02-07T04:22:11.260Z,-4.56
2023-02-07T04:23:11.218Z,-5.85
2023-02-07T04:24:11.194Z,-4.24
2023-02-07T04:25:11.215Z,-4.24
2023-02-07T04:26:11.169Z,-4.88
2023-02-07T04:27:11.161Z,-3.92
2023-02-07T04:28:11.226Z,-5.53
2023-02-07T04:29:11.137Z,-3.59
2023-02-07T04:30:11.121Z,-3.92
2023-02-07T04:31:11.110Z,-4.56
2023-02-07T04:32:11.103Z,-4.56
2023-02-07T04:33:11.094Z,-4.56
2023-02-07T04:34:11.327Z,-2.30
2023-02-07T04:35:11.057Z,-7.14
2023-02-07T04:36:11.037Z,-3.27
2023-02-07T04:37:11.037Z,-1.98
2023-02-07T04:38:11.035Z,-4.24
2023-02-07T04:39:11.011Z,-1.34
2023-02-07T04:40:10.997Z,-3.27
2023-02-07T04:41:10.986Z,-4.56
2023-02-07T04:42:10.965Z,-3.92
2023-02-07T04:43:10.979Z,-3.59
2023-02-07T04:44:10.935Z,-4.88
2023-02-07T04:45:10.941Z,-5.21
2023-02-07T04:46:10.937Z,-4.24
2023-02-07T04:47:10.912Z,-4.24
2023-02-07T04:48:10.896Z,-1.34
2023-02-07T04:49:10.891Z,-3.92
2023-02-07T04:50:10.865Z,-2.63
2023-02-07T04:51:10.853Z,-5.53
2023-02-07T04:52:10.836Z,-2.30
2023-02-07T04:53:10.846Z,-4.88
2023-02-07T04:54:10.818Z,-1.98
2023-02-07T04:55:10.814Z,-1.98
2023-02-07T04:56:10.810Z,-4.24
2023-02-07T04:57:10.787Z,-4.24
2023-02-07T04:58:10.780Z,-3.92
2023-02-07T04:59:10.780Z,-4.56
2023-02-07T05:00:10.781Z,-2.30
2023-02-07T05:01:10.734Z,-3.59
2023-02-07T05:02:10.721Z,-3.59
2023-02-07T05:03:10.744Z,-3.92
2023-02-07T05:04:10.745Z,-4.24
2023-02-07T05:05:10.699Z,-3.27
2023-02-07T05:06:10.671Z,-4.24
2023-02-07T05:07:10.687Z,-3.59
2023-02-07T05:08:10.667Z,-3.92
2023-02-07T05:09:10.639Z,-5.53
2023-02-07T05:10:10.622Z,-3.92
2023-02-07T05:11:10.613Z,-4.88
2023-02-07T05:12:10.607Z,-3.59
2023-02-07T05:13:10.995Z,-3.59
2023-02-07T05:14:10.574Z,-3.59
2023-02-07T05:15:10.570Z,-3.27
2023-02-07T05:16:10.548Z,-1.34
2023-02-07T05:17:10.544Z,-4.56
2023-02-07T05:18:10.534Z,-3.59
2023-02-07T05:19:10.517Z,-5.85
2023-02-07T05:20:10.514Z,-6.17
2023-02-07T05:21:10.504Z,-5.21
2023-02-07T05:22:10.474Z,-3.27
2023-02-07T05:23:10.494Z,-4.24
2023-02-07T05:24:10.465Z,-3.92
2023-02-07T05:25:10.457Z,-1.98
2023-02-07T05:26:10.420Z,-3.59
2023-02-07T05:27:10.415Z,-1.02
2023-02-07T05:28:10.425Z,-4.88
2023-02-07T05:29:10.414Z,-1.66
2023-02-07T05:30:10.365Z,-2.30
2023-02-07T05:31:10.461Z,-4.56
2023-02-07T05:32:10.361Z,-1.02
2023-02-07T05:33:10.365Z,-5.53
2023-02-07T05:34:10.341Z,-1.34
2023-02-07T05:35:11.318Z,-3.59
2023-02-07T05:36:10.313Z,-5.21
2023-02-07T05:37:10.313Z,-3.27
2023-02-07T05:38:10.294Z,-3.92
2023-02-07T05:39:10.296Z,-5.53
2023-02-07T05:40:12.901Z,-3.59
2023-02-07T05:41:26.431Z,-0.37
2023-02-07T05:42:13.389Z,-3.27
2023-02-07T05:43:13.909Z,-3.59
2023-02-07T05:44:12.842Z,-3.92
2023-02-07T05:51:08.822Z,-2.30
2023-02-07T05:52:10.830Z,-3.92
2023-02-07T05:53:08.785Z,-3.27
2023-02-07T05:54:08.773Z,-4.56
2023-02-07T05:55:08.761Z,-3.59
2023-02-07T05:56:09.722Z,-3.27
2023-02-07T05:57:08.744Z,-2.95
2023-02-07T05:58:09.692Z,-2.95
2023-02-07T05:59:09.660Z,-3.27
2023-02-07T06:00:09.663Z,-3.27
2023-02-07T06:01:09.647Z,-2.30
2023-02-07T06:02:09.641Z,-2.95
2023-02-07T06:03:08.693Z,-5.53
2023-02-07T06:04:08.660Z,-3.27
2023-02-07T06:05:08.638Z,-3.59
2023-02-07T06:06:08.636Z,-3.59
2023-02-07T06:07:08.634Z,-5.21
2023-02-07T06:08:08.616Z,-0.69
2023-02-07T06:09:08.605Z,-3.27
2023-02-07T06:10:08.581Z,-5.21
2023-02-07T06:11:08.560Z,-3.27
2023-02-07T06:12:08.561Z,-1.66
2023-02-07T06:13:08.544Z,-3.27
2023-02-07T06:14:08.529Z,-3.59
2023-02-07T06:15:08.523Z,-3.59
2023-02-07T06:16:08.553Z,-3.27
2023-02-07T06:17:08.507Z,-3.59
2023-02-07T06:18:09.432Z,-4.56
2023-02-07T06:19:08.463Z,-5.21
2023-02-07T06:20:09.464Z,-3.59
2023-02-07T06:21:08.444Z,-3.27
2023-02-07T06:22:08.430Z,-3.27
2023-02-07T06:23:09.383Z,-4.88
2023-02-07T06:24:09.352Z,-3.27
2023-02-07T06:25:08.412Z,-4.56
2023-02-07T06:26:09.330Z,-3.92
2023-02-07T06:27:09.599Z,-4.24
2023-02-07T06:28:08.379Z,-3.27
2023-02-07T06:29:08.342Z,-5.21
2023-02-07T06:30:08.339Z,-3.27
2023-02-07T06:31:08.403Z,-3.27
2023-02-07T06:32:08.300Z,-3.27
2023-02-07T06:33:08.308Z,-0.37
2023-02-07T06:34:08.297Z,-3.59
2023-02-07T06:35:08.292Z,-1.02
2023-02-07T06:36:08.270Z,-1.34
2023-02-07T06:37:08.241Z,-4.88
2023-02-07T06:38:08.233Z,-3.59
2023-02-07T06:39:08.229Z,-3.59
2023-02-07T06:40:08.210Z,-1.98
2023-02-07T06:41:08.197Z,-3.27
2023-02-07T06:42:08.191Z,-2.95
2023-02-07T06:43:09.102Z,-2.30
2023-02-07T06:44:08.337Z,-4.24
2023-02-07T06:45:08.147Z,-2.95
2023-02-07T06:46:08.173Z,-3.59
2023-02-07T06:47:08.122Z,-3.27
2023-02-07T06:48:08.149Z,-5.21
2023-02-07T06:49:08.237Z,-3.59
2023-02-07T06:50:09.550Z,-2.30
2023-02-07T06:51:08.877Z,-3.59
2023-02-07T06:52:08.079Z,-5.85
2023-02-07T06:53:08.086Z,-1.34
2023-02-07T06:54:08.036Z,-2.63
2023-02-07T06:55:08.031Z,-3.27
2023-02-07T06:56:08.005Z,-2.63
2023-02-07T06:57:07.994Z,-3.27
2023-02-07T06:58:07.985Z,-5.21
2023-02-07T06:59:08.009Z,-1.34
2023-02-07T07:00:07.949Z,-2.95
2023-02-07T07:01:07.949Z,-4.88
2023-02-07T07:02:07.929Z,-0.05
2023-02-07T07:03:07.931Z,-2.95
2023-02-07T07:04:08.179Z,-1.66
2023-02-07T07:05:07.899Z,-2.30
2023-02-07T07:06:07.889Z,-2.30
2023-02-07T07:07:07.881Z,-2.63
2023-02-07T07:08:07.866Z,-3.27
2023-02-07T07:09:07.865Z,-4.88
2023-02-07T07:10:07.882Z,-3.59
2023-02-07T07:11:07.824Z,-3.27
2023-02-07T07:12:07.811Z,-3.59
2023-02-07T07:13:07.801Z,-0.05
2023-02-07T07:14:07.829Z,-0.37
2023-02-07T07:15:08.743Z,-2.95
2023-02-07T07:16:07.817Z,-1.66
2023-02-07T07:17:07.748Z,-2.63
2023-02-07T07:18:08.015Z,-2.63
2023-02-07T07:19:07.751Z,-2.63
2023-02-07T07:20:07.771Z,-3.27
2023-02-07T07:21:07.723Z,-2.95
2023-02-07T07:22:07.691Z,-1.34
2023-02-07T07:23:07.678Z,-1.34
2023-02-07T07:24:07.699Z,-3.27
2023-02-07T07:25:07.653Z,-4.88
2023-02-07T07:26:07.637Z,-2.30
2023-02-07T07:27:07.635Z,-2.30
2023-02-07T07:28:07.638Z,-2.95
2023-02-07T07:29:07.622Z,-3.59
2023-02-07T07:30:09.558Z,-0.69
2023-02-07T07:31:07.647Z,-2.95
2023-02-07T07:32:07.580Z,-3.59
2023-02-07T07:33:07.559Z,-5.53
2023-02-07T07:34:07.558Z,-2.63
2023-02-07T07:35:08.357Z,-1.66
2023-02-07T07:36:08.906Z,-1.02
2023-02-07T07:37:07.504Z,-2.95
2023-02-07T07:38:07.486Z,-2.30
2023-02-07T07:39:07.495Z,-2.63
2023-02-07T07:40:07.494Z,-5.53
2023-02-07T07:41:07.474Z,-2.63
2023-02-07T07:42:09.413Z,-1.02
2023-02-07T07:43:07.433Z,-4.24
2023-02-07T07:44:07.438Z,-2.63
2023-02-07T07:45:07.402Z,-1.02
2023-02-07T07:46:07.416Z,-0.69
2023-02-07T07:47:07.372Z,-6.17
2023-02-07T07:48:07.399Z,-3.27
2023-02-07T07:49:07.365Z,-0.05
2023-02-07T07:50:07.334Z,-0.69
2023-02-07T07:51:09.301Z,-1.98
2023-02-07T07:52:07.312Z,-2.30
2023-02-07T07:53:08.253Z,-2.30
2023-02-07T07:54:07.304Z,0.27
2023-02-07T07:55:07.276Z,-2.63
2023-02-07T07:56:07.265Z,-2.30
2023-02-07T07:57:07.252Z,-1.98
2023-02-07T07:58:07.225Z,-2.30
2023-02-07T07:59:12.187Z,-2.95
2023-02-07T08:00:08.204Z,-0.69
2023-02-07T08:01:07.296Z,-2.63
2023-02-07T08:02:07.171Z,-1.34
2023-02-07T08:03:07.172Z,-3.27
2023-02-07T08:04:07.211Z,-4.56
2023-02-07T08:05:07.157Z,-2.63
2023-02-07T08:06:07.123Z,-1.02
2023-02-07T08:07:07.112Z,0.27
2023-02-07T08:08:07.113Z,-2.95
2023-02-07T08:09:07.399Z,-2.95
2023-02-07T08:10:07.074Z,-4.24
2023-02-07T08:11:07.073Z,-2.30
2023-02-07T08:12:07.052Z,-1.34
2023-02-07T08:13:07.050Z,-4.56
2023-02-07T08:14:07.041Z,-2.30
2023-02-07T08:15:07.040Z,-2.30
2023-02-07T08:16:07.037Z,-4.56
2023-02-07T08:17:06.994Z,-1.02
2023-02-07T08:18:06.977Z,-3.59
2023-02-07T08:19:06.965Z,-2.63
2023-02-07T08:20:06.967Z,-4.24
2023-02-07T08:21:06.944Z,-2.63
2023-02-07T08:22:06.926Z,-2.30
2023-02-07T08:23:06.927Z,-2.95
2023-02-07T08:24:06.920Z,-5.85
2023-02-07T08:25:08.433Z,-2.30
2023-02-07T08:26:06.875Z,-2.30
2023-02-07T08:27:06.878Z,-2.30
2023-02-07T08:28:06.863Z,-0.37
2023-02-07T08:29:06.877Z,-2.30
2023-02-07T08:30:06.837Z,-4.56
2023-02-07T08:31:07.122Z,-1.98
2023-02-07T08:32:06.875Z,-1.66
2023-02-07T08:33:06.826Z,-2.30
2023-02-07T08:34:06.777Z,-3.27
2023-02-07T08:35:06.777Z,-1.98
2023-02-07T08:36:07.278Z,-1.98
2023-02-07T08:37:06.750Z,-1.98
2023-02-07T08:38:06.726Z,-1.98
2023-02-07T08:39:06.871Z,-2.95
2023-02-07T08:40:06.727Z,-7.14
2023-02-07T08:41:06.691Z,-2.63
2023-02-07T08:42:06.701Z,-1.66
2023-02-07T08:43:06.682Z,-1.98
2023-02-07T08:44:06.670Z,-1.66
2023-02-07T08:45:06.755Z,0.27
2023-02-07T08:46:06.817Z,1.24
2023-02-07T08:47:06.617Z,-1.34
2023-02-07T08:48:06.602Z,0.60
2023-02-07T08:49:06.577Z,-3.59
2023-02-07T08:50:06.580Z,-1.66
2023-02-07T08:51:06.562Z,-1.66
2023-02-07T08:52:06.549Z,-1.98
2023-02-07T08:53:06.540Z,-1.98
2023-02-07T08:54:06.529Z,-1.34
2023-02-07T08:55:06.549Z,0.27
2023-02-07T08:56:06.503Z,-3.59
2023-02-07T08:57:06.488Z,-3.92
2023-02-07T08:58:06.475Z,-1.34
2023-02-07T08:59:06.471Z,-1.34
2023-02-07T09:00:06.453Z,-1.66
2023-02-07T09:01:07.483Z,-0.69
2023-02-07T09:02:06.505Z,-1.34
2023-02-07T09:03:07.369Z,0.27
2023-02-07T09:04:06.397Z,-3.92
2023-02-07T09:05:06.391Z,-1.34
2023-02-07T09:06:06.377Z,-0.69
2023-02-07T09:07:06.360Z,-2.30
2023-02-07T09:08:06.350Z,-1.66
2023-02-07T09:09:06.341Z,-0.69
2023-02-07T09:10:06.324Z,-1.98
2023-02-07T09:11:09.559Z,-4.24
2023-02-07T09:12:06.292Z,-1.34
2023-02-07T09:13:06.301Z,-2.30
2023-02-07T09:14:06.275Z,-1.02
2023-02-07T09:15:06.283Z,0.60
2023-02-07T09:16:06.248Z,-3.59
2023-02-07T09:17:06.235Z,-1.34
2023-02-07T09:18:06.214Z,-0.69
2023-02-07T09:19:07.022Z,1.88
2023-02-07T09:20:06.445Z,-1.02
2023-02-07T09:21:06.191Z,-0.69
2023-02-07T09:22:06.183Z,-0.69
2023-02-07T09:23:06.192Z,-1.02
2023-02-07T09:24:06.407Z,-2.30
2023-02-07T09:25:06.141Z,-0.05
2023-02-07T09:26:06.143Z,-1.66
2023-02-07T09:27:06.134Z,-2.95
2023-02-07T09:28:06.150Z,-1.34
2023-02-07T09:29:06.105Z,-0.37
2023-02-07T09:30:06.074Z,2.53
2023-02-07T09:31:06.152Z,-0.69
2023-02-07T09:32:06.045Z,-0.69
2023-02-07T09:33:06.031Z,-0.69
2023-02-07T09:34:06.025Z,-0.37
2023-02-07T09:35:06.005Z,-1.98
2023-02-07T09:36:06.240Z,1.56
2023-02-07T09:37:07.976Z,-0.05
2023-02-07T09:38:05.958Z,-0.69
2023-02-07T09:39:05.954Z,-1.02
2023-02-07T09:40:05.957Z,-1.66
2023-02-07T09:41:05.935Z,-0.69
2023-02-07T09:42:06.205Z,-1.02
2023-02-07T09:43:06.011Z,-0.37
2023-02-07T09:44:06.026Z,-0.69
2023-02-07T09:45:06.004Z,-1.02
2023-02-07T09:46:05.892Z,-0.69
2023-02-07T09:47:05.860Z,-1.02
2023-02-07T09:48:05.857Z,-0.37
2023-02-07T09:49:05.839Z,-0.69
2023-02-07T09:50:05.815Z,-1.66
2023-02-07T09:51:06.873Z,1.56
2023-02-07T09:52:07.766Z,-2.63
2023-02-07T09:53:05.850Z,1.56
2023-02-07T09:54:05.778Z,-0.69
2023-02-07T09:55:05.778Z,-0.37
2023-02-07T09:56:06.705Z,-1.02
2023-02-07T09:57:05.746Z,-1.34
2023-02-07T09:58:05.988Z,-3.27
2023-02-07T09:59:05.697Z,1.88
2023-02-07T10:00:05.678Z,-0.69
2023-02-07T10:01:05.703Z,-1.02
2023-02-07T10:02:05.661Z,-0.69
2023-02-07T10:03:05.687Z,-2.30
2023-02-07T10:04:05.658Z,0.60
2023-02-07T10:05:05.620Z,-0.69
2023-02-07T10:06:17.539Z,-2.63
2023-02-07T10:07:06.588Z,-0.69
2023-02-07T10:08:05.579Z,-2.95
2023-02-07T10:09:05.567Z,-0.69
2023-02-07T10:10:05.566Z,-2.95
2023-02-07T10:11:06.001Z,2.21
2023-02-07T10:12:05.547Z,-2.30
2023-02-07T10:13:07.439Z,-0.69
2023-02-07T10:14:05.496Z,-1.02
2023-02-07T10:15:05.491Z,-0.37
2023-02-07T10:16:05.564Z,-3.59
2023-02-07T10:17:05.487Z,-0.37
2023-02-07T10:18:05.445Z,-0.05
2023-02-07T10:19:05.436Z,2.53
2023-02-07T10:20:05.447Z,0.27
2023-02-07T10:21:06.621Z,-2.95
2023-02-07T10:22:06.376Z,-0.37
2023-02-07T10:23:05.386Z,0.60
2023-02-07T10:24:05.375Z,-0.05
2023-02-07T10:25:05.367Z,-0.37
2023-02-07T10:26:05.390Z,2.53
2023-02-07T10:27:05.373Z,0.27
2023-02-07T10:28:05.385Z,-0.05
2023-02-07T10:29:05.315Z,-0.05
2023-02-07T10:30:05.298Z,0.92
2023-02-07T10:31:05.403Z,1.24
2023-02-07T10:32:05.271Z,-0.37
2023-02-07T10:33:05.257Z,-0.37
2023-02-07T10:34:05.248Z,-0.37
2023-02-07T10:35:05.229Z,-1.02
2023-02-07T10:36:05.229Z,-0.37
2023-02-07T10:37:05.212Z,-0.69
2023-02-07T10:38:05.201Z,-0.37
2023-02-07T10:39:09.477Z,0.27
2023-02-07T10:40:05.184Z,0.60
2023-02-07T10:41:06.160Z,-0.37
2023-02-07T10:42:05.149Z,-0.05
2023-02-07T10:43:05.380Z,2.53
2023-02-07T10:44:05.132Z,-1.34
2023-02-07T10:45:05.122Z,0.27
2023-02-07T10:46:06.752Z,-0.37
2023-02-07T10:47:05.091Z,0.27
2023-02-07T10:48:06.032Z,-0.37
2023-02-07T10:49:05.063Z,-1.98
2023-02-07T10:50:05.051Z,-0.37
2023-02-07T10:51:05.052Z,-0.05
2023-02-07T10:52:05.033Z,-1.02
2023-02-07T10:53:05.012Z,-0.05
2023-02-07T10:54:05.007Z,-0.37
2023-02-07T10:55:04.986Z,0.27
2023-02-07T10:56:04.992Z,3.17
2023-02-07T10:57:04.960Z,0.60
2023-02-07T10:58:17.729Z,0.60
2023-02-07T10:59:05.944Z,0.60
2023-02-07T11:00:04.929Z,-0.05
2023-02-07T11:01:04.960Z,-0.05
2023-02-07T11:02:04.945Z,0.92
2023-02-07T11:03:04.906Z,0.27
2023-02-07T11:04:04.892Z,-1.66
2023-02-07T11:05:04.860Z,2.21
2023-02-07T11:06:06.873Z,0.27
2023-02-07T11:07:04.865Z,-0.05
2023-02-07T11:08:04.834Z,-0.69
2023-02-07T11:09:04.814Z,-0.05
2023-02-07T11:10:04.815Z,-0.05
2023-02-07T11:11:04.816Z,0.27
2023-02-07T11:12:04.825Z,2.85
2023-02-07T11:13:04.758Z,0.27
2023-02-07T11:14:04.764Z,-1.66
2023-02-07T11:15:04.737Z,-1.02
2023-02-07T11:16:04.839Z,-0.37
2023-02-07T11:17:04.724Z,0.60
2023-02-07T11:18:04.723Z,0.27
2023-02-07T11:19:04.699Z,0.60
2023-02-07T11:20:04.685Z,-1.02
2023-02-07T11:21:04.666Z,2.53
2023-02-07T11:22:04.659Z,0.92
2023-02-07T11:23:04.635Z,0.27
2023-02-07T11:24:04.632Z,2.85
2023-02-07T11:25:04.617Z,2.21
2023-02-07T11:26:04.606Z,-0.05
2023-02-07T11:27:04.608Z,0.27
2023-02-07T11:28:04.627Z,-1.66
2023-02-07T11:29:05.732Z,0.92
2023-02-07T11:30:04.557Z,1.24
2023-02-07T11:31:05.597Z,-1.02
2023-02-07T11:32:04.559Z,2.85
2023-02-07T11:33:04.524Z,1.24
2023-02-07T11:34:05.481Z,-0.37
2023-02-07T11:35:04.501Z,2.21
2023-02-07T11:36:05.459Z,2.85
2023-02-07T11:37:04.468Z,0.27
2023-02-07T11:38:04.877Z,0.60
2023-02-07T11:39:04.440Z,3.17
2023-02-07T11:40:04.425Z,2.53
2023-02-07T11:41:04.419Z,-1.66
2023-02-07T11:42:04.411Z,2.53
2023-02-07T11:43:04.381Z,0.92
2023-02-07T11:44:04.381Z,0.60
2023-02-07T11:45:04.384Z,0.92
2023-02-07T11:46:04.374Z,1.56
2023-02-07T11:47:04.361Z,-2.95
2023-02-07T11:48:04.328Z,-0.05
2023-02-07T11:49:04.369Z,0.27
2023-02-07T11:50:04.337Z,0.27
2023-02-07T11:51:04.330Z,-0.37
2023-02-07T11:52:04.340Z,-0.05
2023-02-07T11:53:04.274Z,0.27
2023-02-07T11:54:04.272Z,-0.05
2023-02-07T11:55:04.235Z,-2.30
2023-02-07T11:56:04.252Z,-0.05
2023-02-07T11:57:04.333Z,3.17
2023-02-07T11:58:04.225Z,2.21
2023-02-07T11:59:04.216Z,0.92
2023-02-07T12:00:04.192Z,0.92
2023-02-07T12:01:04.186Z,0.60
2023-02-07T12:02:04.241Z,0.27
2023-02-07T12:03:04.148Z,0.27
2023-02-07T12:04:04.139Z,0.92
2023-02-07T12:05:04.124Z,-0.05
2023-02-07T12:06:04.127Z,-0.05
2023-02-07T12:07:04.114Z,-0.05
2023-02-07T12:08:04.108Z,0.27
2023-02-07T12:09:04.071Z,-0.05
2023-02-07T12:10:04.152Z,2.53
2023-02-07T12:11:04.051Z,-1.34
2023-02-07T12:12:04.283Z,2.85
2023-02-07T12:13:04.048Z,-1.66
2023-02-07T12:14:04.217Z,-0.05
2023-02-07T12:15:04.235Z,0.92
2023-02-07T12:16:06.042Z,0.60
2023-02-07T12:17:04.005Z,0.60
2023-02-07T12:18:03.966Z,0.92
2023-02-07T12:19:03.947Z,0.27
2023-02-07T12:20:04.880Z,-1.66
2023-02-07T12:21:03.919Z,-0.37
2023-02-07T12:22:03.914Z,0.27
2023-02-07T12:23:27.971Z,-0.05
2023-02-07T12:24:04.903Z,0.27
2023-02-07T12:25:03.874Z,1.24
2023-02-07T12:26:03.861Z,2.21
2023-02-07T12:27:03.849Z,-2.63
2023-02-07T12:28:03.903Z,-1.34
2023-02-07T12:29:12.802Z,0.60
2023-02-07T12:30:04.809Z,1.24
2023-02-07T12:31:06.172Z,2.21
2023-02-07T12:32:03.970Z,-1.02
2023-02-07T12:33:03.787Z,-1.34
2023-02-07T12:34:03.765Z,1.88
2023-02-07T12:35:03.760Z,0.27
2023-02-07T12:36:04.010Z,-0.37
2023-02-07T12:37:05.310Z,-0.05
2023-02-07T12:38:03.714Z,2.53
2023-02-07T12:39:04.554Z,-0.37
2023-02-07T12:40:03.690Z,2.21
2023-02-07T12:41:03.678Z,-0.37
2023-02-07T12:42:03.665Z,3.17
2023-02-07T12:43:03.682Z,-0.05
2023-02-07T12:44:06.206Z,-0.69
2023-02-07T12:45:03.658Z,1.56
2023-02-07T12:46:03.676Z,-2.95
2023-02-07T12:47:04.568Z,-0.69
2023-02-07T12:48:03.606Z,-0.05
2023-02-07T12:49:05.056Z,-1.66
2023-02-07T12:50:03.575Z,1.24
2023-02-07T12:51:04.506Z,-0.37
2023-02-07T12:52:03.928Z,-1.02
2023-02-07T12:53:03.538Z,-0.69
2023-02-07T12:54:03.540Z,-2.30
2023-02-07T12:55:03.500Z,-0.05
2023-02-07T12:56:03.503Z,1.88
2023-02-07T12:57:03.473Z,-0.37
2023-02-07T12:58:03.474Z,2.53
2023-02-07T12:59:03.448Z,-0.05
2023-02-07T13:00:03.436Z,0.27
2023-02-07T13:01:03.494Z,-0.37